Ryan Johnson

Olheiro - Real Salt Lake
10 Set 2028
Domingo
Processo

Personalidade

Adaptabilidade (19) Ambição (4) Controvérsia (13) Lealdade (6) Pressão (3) Profissionalismo (6) Espírito Esportivo (18) Temperamento (19)

Perfil

Estilo de Treinamento Democrático
Licença Continental A
Determinação 12
Gestão de Pessoas 6
Motivação 6
Disciplina 4
Satisfação no Trabalho
100%
Fadiga
0%
Função Olheiro
Salário 32.1K p/s
Contrato 14.03.2029

Desempenho

Comportamento Bom
Eficácia do Treinamento
30%
Desenvolvimento do Jogador
55%
Prevenção de Lesões
50%
Implementação Tática
60%

Eventos Recentes

Avaliou um jogador agora
Participou de uma reunião de recrutamento 7d atrás
Observou uma partida 7d atrás
Participou de uma reunião de recrutamento 14d atrás
Observou uma partida 14d atrás
Participou de uma reunião de recrutamento 21d atrás
Observou uma partida 21d atrás
Observou uma partida 28d atrás

Monitorando agora

70
Jogador Clube Status Habilidade Confiança Observado Última observação Último voto
Ezra Mayers West Ham United Ativo 115 / 123 40% 2 04.09.2028 -
Christos Mouzakitis Hull City Ativo 130 / 145 40% 3 04.09.2028 -
Jack Wint Sibenik Ativo 88 / 115 40% 2 06.07.2028 -
Charlie Hardy Manchester United Ativo 81 / 105 40% 1 06.07.2028 -
Sam Proctor Salford City Ativo 115 / 137 40% 2 03.07.2028 -
Lwandiso Radebe Ajax Cape Town Negociando 93 / 124 40% 1 03.07.2028 -
Farren Doran Tottenham Ativo 78 / 89 40% 1 14.02.2028 -
Lanre Awesu West Ham United Ativo 71 / 101 40% 1 14.02.2028 -
Olivier Leroux Mouscron Ativo 100 / 103 40% 1 08.02.2028 -
Abubakar Adams Aduana Stars Ativo 90 / 93 40% 1 08.02.2028 -
Daniel Banjaqui Benfica Ativo 137 / 138 40% 1 07.02.2028 -
Josh Acheampong Everton Ativo 133 / 141 40% 1 04.01.2028 -
Gideon Manaseh Ikorodu City Ativo 89 / 105 40% 1 01.01.2028 -
Joel Ezra Enyimba Ativo 99 / 109 40% 2 19.12.2027 -
Juan Camilo Córdoba Deportivo Pereira Ativo 95 / 84 40% 1 16.12.2027 -
Matias Siltanen Malmo FF Ativo 139 / 128 40% 1 16.12.2027 -
Luka Vušković Tottenham Ativo 150 / 162 40% 2 15.12.2027 -
Daniel Idoko Ikorodu City Ativo 99 / 85 40% 1 15.12.2027 -
Victor Hernandez Santa Fe Ativo 117 / 130 40% 1 14.12.2027 -
Ayden Heaven Portsmouth Ativo 156 / 151 40% 2 11.12.2027 -
Zane Albarus Shrewsbury Town Ativo 91 / 116 40% 1 10.12.2027 -
Josh Nichols Oldham Athletic Ativo 134 / 112 40% 1 08.12.2027 -
Tiziano Delias Sarmiento Ativo 93 / 95 40% 1 15.11.2027 -
Naphtali Mokoena Bloemfontein Celtic Ativo 89 / 89 40% 1 10.11.2027 -
Bokamoso Taukobong Inter Allies Ativo 87 / 93 40% 1 07.11.2027 -
Yegor Koshkin Pobeda Ativo 67 / 70 40% 1 05.11.2027 -
Damian Čech Fulham Ativo 71 / 97 40% 1 02.11.2027 -
Noah Cooper Stoke City Ativo 90 / 75 40% 1 17.10.2027 -
Alastair Graham Nottingham Forest Ativo 94 / 98 40% 2 16.10.2027 -
Liam Coyne Luton Town Ativo 95 / 95 40% 1 16.10.2027 -
Brian Okonkwo Rotherham United Ativo 80 / 76 40% 1 12.10.2027 -
Sebastian Jensen Brighton Ativo 80 / 94 40% 1 12.10.2027 -
Aidan Harris Newcastle United Ativo 102 / 113 40% 2 07.10.2027 -
Robert Cook Accrington Stanley Ativo 111 / 129 40% 1 07.10.2027 -
John Reid Leeds United Ativo 81 / 107 40% 1 06.10.2027 -
Tyrese Spicer Orlando City Ativo 117 / 102 58% 1 02.08.2027 -
Riley Owen Stevenage Ativo 85 / 96 40% 2 13.02.2027 -
Tiago Freitas Benfica Ativo 121 / 130 40% 1 13.02.2027 -
Mathys Tel Tottenham Ativo 133 / 153 40% 2 12.02.2027 -
Rocco Vata Watford Ativo 135 / 118 40% 2 12.02.2027 -
Will Lankshear Middlesbrough Ativo 104 / 116 40% 1 11.02.2027 -
Maldini Kacurri Grimsby Town Ativo 83 / 102 40% 1 08.02.2027 -
Rivaldo Mkhize Black Aces Ativo 90 / 94 40% 1 08.02.2027 -
Maxim Radchenko Rostov Ativo 98 / 81 40% 1 06.02.2027 -
Chimobi Igwilo Rangers International Ativo 91 / 81 40% 1 05.02.2027 -
Ajay Matthews Millwall Ativo 96 / 123 40% 1 02.02.2027 -
Ahmed Khaled Paralimni Ativo 100 / 93 40% 1 02.02.2027 -
Ben Ahmed Kohili Paradou Ativo 87 / 94 40% 2 31.01.2027 -
Víctor Guzmán Sporting CP Ativo 103 / 104 40% 2 29.01.2027 -
Kirill Cheburakov Rostov Ativo 81 / 64 40% 1 29.01.2027 -
Giuseppe Coppola Picerno Ativo 110 / 94 40% 1 26.01.2027 -
Juan Francisco Rossel Puebla Ativo 97 / 98 40% 1 26.01.2027 -
Matvii Ponomarenko Dynamo Kyiv Ativo 120 / 137 40% 1 25.01.2027 -
Sergey Gaiduk Salyut Ativo 91 / 96 40% 1 25.01.2027 -
Luke Baartman Ajax Cape Town Ativo 104 / 113 40% 2 21.01.2027 -
Serge Daura PWD Bamenda Ativo 91 / 109 40% 2 21.01.2027 -
Dani Ángel Sampdoria Ativo 83 / 94 40% 1 12.01.2027 -
Hassan Beja AFC Leopards Ativo 85 / 99 40% 1 09.01.2027 -
Evan Mooney Arsenal Ativo 84 / 105 40% 1 09.01.2027 -
Itumeleng Hlatshwayo SuperSport United Ativo 84 / 96 40% 1 07.01.2027 -
Eseosa Sule West Bromwich Albion Ativo 105 / 95 40% 1 04.01.2027 -
Rhys Walters Port Vale Ativo 111 / 123 40% 1 10.12.2026 -
Edwin Asamoah Berekum Chelsea Ativo 83 / 86 40% 1 10.12.2026 -
Cemran Dansin Orlando Pirates Ativo 100 / 131 40% 2 15.10.2026 -
Gabriel Lekan Kun Khalifat Ativo 78 / 92 40% 1 15.10.2026 -
Simphiwe Selepe Orlando Pirates Ativo 110 / 107 40% 1 11.10.2026 -
Reece Braithwaite Bloemfontein Celtic Ativo 106 / 126 40% 1 07.10.2026 -
Deandre Kerr Toronto FC Ativo 96 / 122 55% 1 03.08.2026 -
Martín Ojeda Orlando City Ativo 145 / 133 40% 1 01.08.2026 -
Lukas Nmecha Leeds United Ativo 133 / 114 40% 1 01.08.2026 -